sensor_id;sensor_type;location;lat;lon;timestamp;P1;durP1;ratioP1;P2;durP2;ratioP2
60714;SDS011;46564;53.096;8.246;2022-08-11T00:03:34;9.23;;;3.58;;
60714;SDS011;46564;53.096;8.246;2022-08-11T00:08:44;8.23;;;3.78;;
60714;SDS011;46564;53.096;8.246;2022-08-11T00:13:51;8.02;;;3.92;;
60714;SDS011;46564;53.096;8.246;2022-08-11T00:18:53;7.53;;;3.10;;
60714;SDS011;46564;53.096;8.246;2022-08-11T00:23:58;6.05;;;3.30;;
60714;SDS011;46564;53.096;8.246;2022-08-11T00:29:09;7.43;;;3.65;;
60714;SDS011;46564;53.096;8.246;2022-08-11T00:34:12;8.55;;;4.32;;
60714;SDS011;46564;53.096;8.246;2022-08-11T00:39:18;7.32;;;3.95;;
60714;SDS011;46564;53.096;8.246;2022-08-11T01:33:07;7.80;;;3.67;;
60714;SDS011;46564;53.096;8.246;2022-08-11T01:49:20;9.15;;;3.97;;
60714;SDS011;46564;53.096;8.246;2022-08-11T02:00:35;8.35;;;5.15;;
60714;SDS011;46564;53.096;8.246;2022-08-11T02:11:31;10.52;;;5.90;;
60714;SDS011;46564;53.096;8.246;2022-08-11T02:16:46;9.85;;;6.65;;
60714;SDS011;46564;53.096;8.246;2022-08-11T02:22:00;11.55;;;6.63;;
60714;SDS011;46564;53.096;8.246;2022-08-11T02:27:26;19.23;;;7.03;;
60714;SDS011;46564;53.096;8.246;2022-08-11T02:32:50;16.08;;;6.20;;
60714;SDS011;46564;53.096;8.246;2022-08-11T02:38:36;11.13;;;5.85;;
60714;SDS011;46564;53.096;8.246;2022-08-11T02:43:49;8.65;;;5.90;;
60714;SDS011;46564;53.096;8.246;2022-08-11T02:49:10;10.48;;;5.47;;
60714;SDS011;46564;53.096;8.246;2022-08-11T03:06:23;13.80;;;5.05;;
60714;SDS011;46564;53.096;8.246;2022-08-11T03:17:24;11.18;;;5.47;;
60714;SDS011;46564;53.096;8.246;2022-08-11T03:27:59;9.95;;;5.22;;
60714;SDS011;46564;53.096;8.246;2022-08-11T03:33:16;10.27;;;5.60;;
60714;SDS011;46564;53.096;8.246;2022-08-11T03:39:03;10.05;;;5.43;;
60714;SDS011;46564;53.096;8.246;2022-08-11T03:44:33;11.97;;;5.27;;
60714;SDS011;46564;53.096;8.246;2022-08-11T04:28:04;8.45;;;5.50;;
60714;SDS011;46564;53.096;8.246;2022-08-11T04:33:33;11.43;;;6.93;;
60714;SDS011;46564;53.096;8.246;2022-08-11T04:39:13;16.05;;;7.50;;
60714;SDS011;46564;53.096;8.246;2022-08-11T04:50:16;15.73;;;8.23;;
60714;SDS011;46564;53.096;8.246;2022-08-11T04:56:10;17.67;;;8.68;;
60714;SDS011;46564;53.096;8.246;2022-08-11T05:17:41;10.65;;;6.18;;
60714;SDS011;46564;53.096;8.246;2022-08-11T05:23:18;12.93;;;5.93;;
60714;SDS011;46564;53.096;8.246;2022-08-11T05:28:52;13.30;;;4.70;;
60714;SDS011;46564;53.096;8.246;2022-08-11T05:34:21;8.75;;;4.90;;
60714;SDS011;46564;53.096;8.246;2022-08-11T05:39:48;11.85;;;4.65;;
60714;SDS011;46564;53.096;8.246;2022-08-11T05:45:13;14.05;;;4.80;;
60714;SDS011;46564;53.096;8.246;2022-08-11T05:50:56;9.10;;;4.80;;
60714;SDS011;46564;53.096;8.246;2022-08-11T05:56:17;13.65;;;4.72;;
60714;SDS011;46564;53.096;8.246;2022-08-11T06:01:21;10.70;;;4.60;;
60714;SDS011;46564;53.096;8.246;2022-08-11T06:06:25;14.85;;;5.05;;
60714;SDS011;46564;53.096;8.246;2022-08-11T06:11:27;11.43;;;4.80;;
60714;SDS011;46564;53.096;8.246;2022-08-11T06:16:46;8.48;;;4.32;;
60714;SDS011;46564;53.096;8.246;2022-08-11T06:21:49;10.50;;;4.70;;
60714;SDS011;46564;53.096;8.246;2022-08-11T06:26:53;10.70;;;4.25;;
60714;SDS011;46564;53.096;8.246;2022-08-11T06:32:12;9.18;;;4.53;;
60714;SDS011;46564;53.096;8.246;2022-08-11T06:37:19;9.90;;;5.03;;
60714;SDS011;46564;53.096;8.246;2022-08-11T06:42:47;8.87;;;4.80;;
60714;SDS011;46564;53.096;8.246;2022-08-11T06:47:55;11.13;;;4.45;;
60714;SDS011;46564;53.096;8.246;2022-08-11T06:53:01;11.27;;;4.25;;
60714;SDS011;46564;53.096;8.246;2022-08-11T06:58:10;10.30;;;3.70;;
60714;SDS011;46564;53.096;8.246;2022-08-11T07:03:34;7.15;;;3.40;;
60714;SDS011;46564;53.096;8.246;2022-08-11T07:14:25;7.68;;;2.92;;
60714;SDS011;46564;53.096;8.246;2022-08-11T07:19:53;7.80;;;2.90;;
60714;SDS011;46564;53.096;8.246;2022-08-11T07:25:16;5.43;;;2.67;;
60714;SDS011;46564;53.096;8.246;2022-08-11T07:30:38;11.80;;;2.85;;
60714;SDS011;46564;53.096;8.246;2022-08-11T07:35:42;8.77;;;2.97;;
60714;SDS011;46564;53.096;8.246;2022-08-11T07:40:48;7.78;;;2.88;;
60714;SDS011;46564;53.096;8.246;2022-08-11T07:45:51;5.15;;;2.50;;
60714;SDS011;46564;53.096;8.246;2022-08-11T07:51:12;6.72;;;2.40;;
60714;SDS011;46564;53.096;8.246;2022-08-11T07:56:37;5.90;;;2.70;;
60714;SDS011;46564;53.096;8.246;2022-08-11T08:01:54;10.27;;;3.20;;
60714;SDS011;46564;53.096;8.246;2022-08-11T08:07:15;5.53;;;2.40;;
60714;SDS011;46564;53.096;8.246;2022-08-11T08:12:40;7.15;;;2.50;;
60714;SDS011;46564;53.096;8.246;2022-08-11T08:18:02;4.50;;;2.13;;
60714;SDS011;46564;53.096;8.246;2022-08-11T08:23:26;4.65;;;2.00;;
60714;SDS011;46564;53.096;8.246;2022-08-11T08:28:34;10.00;;;2.00;;
60714;SDS011;46564;53.096;8.246;2022-08-11T08:33:37;5.50;;;2.05;;
60714;SDS011;46564;53.096;8.246;2022-08-11T08:38:47;5.75;;;2.10;;
60714;SDS011;46564;53.096;8.246;2022-08-11T08:43:50;6.03;;;2.00;;
60714;SDS011;46564;53.096;8.246;2022-08-11T08:48:59;4.60;;;1.98;;
60714;SDS011;46564;53.096;8.246;2022-08-11T08:54:04;7.53;;;1.80;;
60714;SDS011;46564;53.096;8.246;2022-08-11T08:59:10;3.30;;;1.30;;
60714;SDS011;46564;53.096;8.246;2022-08-11T09:04:13;5.57;;;1.60;;
60714;SDS011;46564;53.096;8.246;2022-08-11T09:09:21;4.30;;;1.80;;
60714;SDS011;46564;53.096;8.246;2022-08-11T09:14:24;5.75;;;1.33;;
60714;SDS011;46564;53.096;8.246;2022-08-11T09:20:16;9.73;;;1.90;;
60714;SDS011;46564;53.096;8.246;2022-08-11T09:25:21;4.90;;;1.35;;
60714;SDS011;46564;53.096;8.246;2022-08-11T09:30:44;5.10;;;1.33;;
60714;SDS011;46564;53.096;8.246;2022-08-11T09:35:53;2.17;;;1.10;;
60714;SDS011;46564;53.096;8.246;2022-08-11T09:40:56;2.03;;;1.00;;
60714;SDS011;46564;53.096;8.246;2022-08-11T09:46:00;3.35;;;1.25;;
60714;SDS011;46564;53.096;8.246;2022-08-11T09:51:02;4.25;;;1.30;;
60714;SDS011;46564;53.096;8.246;2022-08-11T09:56:07;5.20;;;1.70;;
60714;SDS011;46564;53.096;8.246;2022-08-11T10:01:32;3.35;;;1.30;;
60714;SDS011;46564;53.096;8.246;2022-08-11T10:06:38;1.87;;;1.17;;
60714;SDS011;46564;53.096;8.246;2022-08-11T10:11:59;3.13;;;1.20;;
60714;SDS011;46564;53.096;8.246;2022-08-11T10:17:04;5.50;;;1.40;;
60714;SDS011;46564;53.096;8.246;2022-08-11T10:22:08;5.15;;;1.40;;
60714;SDS011;46564;53.096;8.246;2022-08-11T10:27:33;3.88;;;1.42;;
60714;SDS011;46564;53.096;8.246;2022-08-11T10:32:56;3.65;;;1.30;;
60714;SDS011;46564;53.096;8.246;2022-08-11T10:38:37;5.32;;;1.27;;
60714;SDS011;46564;53.096;8.246;2022-08-11T10:43:39;2.60;;;1.30;;
60714;SDS011;46564;53.096;8.246;2022-08-11T10:49:02;4.00;;;1.40;;
60714;SDS011;46564;53.096;8.246;2022-08-11T10:54:04;4.28;;;1.30;;
60714;SDS011;46564;53.096;8.246;2022-08-11T10:59:26;4.18;;;1.42;;
60714;SDS011;46564;53.096;8.246;2022-08-11T11:10:00;4.18;;;1.27;;
60714;SDS011;46564;53.096;8.246;2022-08-11T11:15:05;4.90;;;1.70;;
60714;SDS011;46564;53.096;8.246;2022-08-11T11:20:37;5.57;;;1.40;;
60714;SDS011;46564;53.096;8.246;2022-08-11T11:42:04;4.22;;;1.55;;
60714;SDS011;46564;53.096;8.246;2022-08-11T11:47:09;3.72;;;1.60;;
60714;SDS011;46564;53.096;8.246;2022-08-11T11:52:14;5.07;;;1.85;;
60714;SDS011;46564;53.096;8.246;2022-08-11T11:57:19;8.03;;;1.97;;
60714;SDS011;46564;53.096;8.246;2022-08-11T12:02:41;3.92;;;1.65;;
60714;SDS011;46564;53.096;8.246;2022-08-11T12:07:43;5.18;;;1.65;;
60714;SDS011;46564;53.096;8.246;2022-08-11T12:13:14;4.78;;;1.63;;
60714;SDS011;46564;53.096;8.246;2022-08-11T12:18:37;2.35;;;1.50;;
60714;SDS011;46564;53.096;8.246;2022-08-11T12:23:41;4.03;;;1.50;;
60714;SDS011;46564;53.096;8.246;2022-08-11T12:29:05;4.10;;;1.45;;
60714;SDS011;46564;53.096;8.246;2022-08-11T12:34:11;5.07;;;1.40;;
60714;SDS011;46564;53.096;8.246;2022-08-11T12:39:21;4.25;;;1.25;;
60714;SDS011;46564;53.096;8.246;2022-08-11T12:45:08;6.10;;;1.40;;
60714;SDS011;46564;53.096;8.246;2022-08-11T12:50:28;4.95;;;1.60;;
60714;SDS011;46564;53.096;8.246;2022-08-11T12:55:49;4.65;;;1.20;;
60714;SDS011;46564;53.096;8.246;2022-08-11T13:01:12;3.40;;;1.45;;
60714;SDS011;46564;53.096;8.246;2022-08-11T13:06:32;5.88;;;1.60;;
60714;SDS011;46564;53.096;8.246;2022-08-11T13:11:35;3.70;;;1.02;;
60714;SDS011;46564;53.096;8.246;2022-08-11T13:16:58;2.95;;;1.30;;
60714;SDS011;46564;53.096;8.246;2022-08-11T13:22:19;3.67;;;1.13;;
60714;SDS011;46564;53.096;8.246;2022-08-11T13:27:24;3.10;;;1.38;;
60714;SDS011;46564;53.096;8.246;2022-08-11T13:32:27;3.13;;;1.20;;
60714;SDS011;46564;53.096;8.246;2022-08-11T13:37:29;3.35;;;1.25;;
60714;SDS011;46564;53.096;8.246;2022-08-11T13:42:51;2.95;;;1.33;;
60714;SDS011;46564;53.096;8.246;2022-08-11T13:47:54;2.53;;;1.20;;
60714;SDS011;46564;53.096;8.246;2022-08-11T13:52:57;3.65;;;1.50;;
60714;SDS011;46564;53.096;8.246;2022-08-11T13:58:00;4.78;;;1.20;;
60714;SDS011;46564;53.096;8.246;2022-08-11T14:03:22;2.38;;;1.15;;
60714;SDS011;46564;53.096;8.246;2022-08-11T14:08:45;2.28;;;1.17;;
60714;SDS011;46564;53.096;8.246;2022-08-11T14:13:50;1.95;;;0.95;;
60714;SDS011;46564;53.096;8.246;2022-08-11T14:18:54;3.30;;;1.30;;
60714;SDS011;46564;53.096;8.246;2022-08-11T14:24:01;2.53;;;1.50;;
60714;SDS011;46564;53.096;8.246;2022-08-11T14:34:20;2.65;;;1.00;;
60714;SDS011;46564;53.096;8.246;2022-08-11T14:39:25;2.85;;;1.10;;
60714;SDS011;46564;53.096;8.246;2022-08-11T14:44:36;5.47;;;1.10;;
60714;SDS011;46564;53.096;8.246;2022-08-11T14:49:56;3.13;;;1.30;;
60714;SDS011;46564;53.096;8.246;2022-08-11T14:55:12;2.95;;;1.17;;
60714;SDS011;46564;53.096;8.246;2022-08-11T15:00:33;4.50;;;1.30;;
60714;SDS011;46564;53.096;8.246;2022-08-11T15:05:37;6.88;;;1.80;;
60714;SDS011;46564;53.096;8.246;2022-08-11T15:10:57;2.33;;;1.20;;
60714;SDS011;46564;53.096;8.246;2022-08-11T15:15:59;3.45;;;1.20;;
60714;SDS011;46564;53.096;8.246;2022-08-11T15:21:20;1.33;;;1.10;;
60714;SDS011;46564;53.096;8.246;2022-08-11T15:26:40;6.47;;;1.40;;
60714;SDS011;46564;53.096;8.246;2022-08-11T15:32:01;2.38;;;1.15;;
60714;SDS011;46564;53.096;8.246;2022-08-11T15:37:22;3.22;;;1.45;;
60714;SDS011;46564;53.096;8.246;2022-08-11T15:42:31;3.13;;;1.80;;
60714;SDS011;46564;53.096;8.246;2022-08-11T15:47:55;10.40;;;5.53;;
60714;SDS011;46564;53.096;8.246;2022-08-11T15:53:28;3.47;;;1.85;;
60714;SDS011;46564;53.096;8.246;2022-08-11T15:58:49;3.63;;;1.65;;
60714;SDS011;46564;53.096;8.246;2022-08-11T16:04:44;6.93;;;1.40;;
60714;SDS011;46564;53.096;8.246;2022-08-11T16:09:50;7.45;;;1.42;;
60714;SDS011;46564;53.096;8.246;2022-08-11T16:15:09;5.22;;;1.23;;
60714;SDS011;46564;53.096;8.246;2022-08-11T16:20:30;3.88;;;1.98;;
60714;SDS011;46564;53.096;8.246;2022-08-11T16:25:35;2.55;;;1.40;;
60714;SDS011;46564;53.096;8.246;2022-08-11T16:30:57;6.28;;;1.33;;
60714;SDS011;46564;53.096;8.246;2022-08-11T16:35:59;5.45;;;1.30;;
60714;SDS011;46564;53.096;8.246;2022-08-11T16:41:22;2.60;;;1.30;;
60714;SDS011;46564;53.096;8.246;2022-08-11T16:46:44;5.45;;;1.38;;
60714;SDS011;46564;53.096;8.246;2022-08-11T16:51:59;5.55;;;1.30;;
60714;SDS011;46564;53.096;8.246;2022-08-11T16:57:09;2.53;;;1.50;;
60714;SDS011;46564;53.096;8.246;2022-08-11T17:02:50;5.22;;;2.25;;
60714;SDS011;46564;53.096;8.246;2022-08-11T17:08:11;7.47;;;1.90;;
60714;SDS011;46564;53.096;8.246;2022-08-11T17:13:46;5.55;;;2.15;;
60714;SDS011;46564;53.096;8.246;2022-08-11T17:19:00;9.27;;;2.53;;
60714;SDS011;46564;53.096;8.246;2022-08-11T17:24:45;4.22;;;1.50;;
60714;SDS011;46564;53.096;8.246;2022-08-11T17:29:50;5.43;;;1.50;;
60714;SDS011;46564;53.096;8.246;2022-08-11T17:34:57;7.03;;;2.10;;
60714;SDS011;46564;53.096;8.246;2022-08-11T17:40:21;6.30;;;1.50;;
60714;SDS011;46564;53.096;8.246;2022-08-11T17:45:24;4.38;;;1.40;;
60714;SDS011;46564;53.096;8.246;2022-08-11T17:50:47;3.55;;;1.40;;
60714;SDS011;46564;53.096;8.246;2022-08-11T17:55:50;3.42;;;1.30;;
60714;SDS011;46564;53.096;8.246;2022-08-11T18:01:11;4.97;;;1.80;;
60714;SDS011;46564;53.096;8.246;2022-08-11T18:06:14;5.35;;;1.50;;
60714;SDS011;46564;53.096;8.246;2022-08-11T18:11:18;3.90;;;1.50;;
60714;SDS011;46564;53.096;8.246;2022-08-11T18:17:00;9.18;;;1.40;;
60714;SDS011;46564;53.096;8.246;2022-08-11T18:22:25;5.75;;;1.85;;
60714;SDS011;46564;53.096;8.246;2022-08-11T18:27:50;6.63;;;1.48;;
60714;SDS011;46564;53.096;8.246;2022-08-11T18:33:13;4.97;;;1.33;;
60714;SDS011;46564;53.096;8.246;2022-08-11T18:38:54;3.63;;;1.40;;
60714;SDS011;46564;53.096;8.246;2022-08-11T18:44:16;5.38;;;1.73;;
60714;SDS011;46564;53.096;8.246;2022-08-11T18:49:40;8.50;;;1.60;;
60714;SDS011;46564;53.096;8.246;2022-08-11T18:55:10;4.78;;;1.60;;
60714;SDS011;46564;53.096;8.246;2022-08-11T19:00:33;6.15;;;1.70;;
60714;SDS011;46564;53.096;8.246;2022-08-11T19:05:57;8.80;;;1.88;;
60714;SDS011;46564;53.096;8.246;2022-08-11T19:11:42;4.93;;;1.42;;
60714;SDS011;46564;53.096;8.246;2022-08-11T19:17:04;5.18;;;1.65;;
60714;SDS011;46564;53.096;8.246;2022-08-11T19:22:45;12.27;;;1.77;;
60714;SDS011;46564;53.096;8.246;2022-08-11T19:28:08;5.00;;;1.67;;
60714;SDS011;46564;53.096;8.246;2022-08-11T19:33:28;6.10;;;1.88;;
60714;SDS011;46564;53.096;8.246;2022-08-11T19:39:09;6.03;;;1.65;;
60714;SDS011;46564;53.096;8.246;2022-08-11T19:44:32;3.35;;;1.75;;
60714;SDS011;46564;53.096;8.246;2022-08-11T19:49:53;3.67;;;1.80;;
60714;SDS011;46564;53.096;8.246;2022-08-11T19:55:25;5.72;;;1.52;;
60714;SDS011;46564;53.096;8.246;2022-08-11T20:00:46;8.82;;;1.70;;
60714;SDS011;46564;53.096;8.246;2022-08-11T20:06:07;4.45;;;1.75;;
60714;SDS011;46564;53.096;8.246;2022-08-11T20:11:31;5.85;;;1.70;;
60714;SDS011;46564;53.096;8.246;2022-08-11T20:16:56;5.30;;;1.73;;
60714;SDS011;46564;53.096;8.246;2022-08-11T20:22:19;2.80;;;1.58;;
60714;SDS011;46564;53.096;8.246;2022-08-11T20:27:40;3.47;;;1.65;;
60714;SDS011;46564;53.096;8.246;2022-08-11T20:33:04;4.85;;;1.92;;
60714;SDS011;46564;53.096;8.246;2022-08-11T20:38:27;2.70;;;1.58;;
60714;SDS011;46564;53.096;8.246;2022-08-11T20:43:49;10.02;;;2.03;;
60714;SDS011;46564;53.096;8.246;2022-08-11T20:49:11;2.20;;;1.60;;
60714;SDS011;46564;53.096;8.246;2022-08-11T20:54:51;4.97;;;1.77;;
60714;SDS011;46564;53.096;8.246;2022-08-11T21:00:26;8.90;;;2.08;;
60714;SDS011;46564;53.096;8.246;2022-08-11T21:05:48;6.32;;;1.85;;
60714;SDS011;46564;53.096;8.246;2022-08-11T21:11:11;6.35;;;2.28;;
60714;SDS011;46564;53.096;8.246;2022-08-11T21:16:34;7.20;;;2.08;;
60714;SDS011;46564;53.096;8.246;2022-08-11T21:21:56;3.88;;;1.83;;
60714;SDS011;46564;53.096;8.246;2022-08-11T21:27:28;7.70;;;1.70;;
60714;SDS011;46564;53.096;8.246;2022-08-11T21:32:52;4.43;;;1.80;;
60714;SDS011;46564;53.096;8.246;2022-08-11T21:38:15;6.90;;;1.83;;
60714;SDS011;46564;53.096;8.246;2022-08-11T21:43:36;5.07;;;1.95;;
60714;SDS011;46564;53.096;8.246;2022-08-11T21:48:58;3.22;;;1.60;;
60714;SDS011;46564;53.096;8.246;2022-08-11T21:54:23;5.25;;;2.05;;
60714;SDS011;46564;53.096;8.246;2022-08-11T21:59:51;7.60;;;1.85;;
60714;SDS011;46564;53.096;8.246;2022-08-11T22:05:15;3.90;;;1.73;;
60714;SDS011;46564;53.096;8.246;2022-08-11T22:10:36;3.03;;;1.80;;
60714;SDS011;46564;53.096;8.246;2022-08-11T22:15:58;7.43;;;2.03;;
60714;SDS011;46564;53.096;8.246;2022-08-11T22:21:19;6.07;;;2.03;;
60714;SDS011;46564;53.096;8.246;2022-08-11T22:27:00;8.38;;;2.42;;
60714;SDS011;46564;53.096;8.246;2022-08-11T22:32:21;6.07;;;2.03;;
60714;SDS011;46564;53.096;8.246;2022-08-11T22:37:43;7.20;;;2.95;;
60714;SDS011;46564;53.096;8.246;2022-08-11T22:43:05;15.57;;;2.40;;
60714;SDS011;46564;53.096;8.246;2022-08-11T22:48:27;5.47;;;2.17;;
60714;SDS011;46564;53.096;8.246;2022-08-11T22:53:48;10.45;;;2.30;;
60714;SDS011;46564;53.096;8.246;2022-08-11T22:59:10;9.45;;;2.20;;
60714;SDS011;46564;53.096;8.246;2022-08-11T23:04:32;4.60;;;2.45;;
60714;SDS011;46564;53.096;8.246;2022-08-11T23:09:54;8.50;;;3.20;;
60714;SDS011;46564;53.096;8.246;2022-08-11T23:15:18;4.88;;;2.40;;
60714;SDS011;46564;53.096;8.246;2022-08-11T23:20:40;6.78;;;2.88;;
60714;SDS011;46564;53.096;8.246;2022-08-11T23:26:02;6.43;;;2.80;;
60714;SDS011;46564;53.096;8.246;2022-08-11T23:31:23;6.40;;;2.78;;
60714;SDS011;46564;53.096;8.246;2022-08-11T23:36:51;9.48;;;2.92;;
60714;SDS011;46564;53.096;8.246;2022-08-11T23:42:14;5.78;;;2.70;;
60714;SDS011;46564;53.096;8.246;2022-08-11T23:47:37;10.35;;;2.70;;
60714;SDS011;46564;53.096;8.246;2022-08-11T23:52:58;7.78;;;2.88;;
60714;SDS011;46564;53.096;8.246;2022-08-11T23:58:19;8.50;;;2.63;;
